Gentleman — WTA9437 — position and weather

sailwx.info

Track history (hours):
 
Tides and Currents Weather Stations Pressure Air Temp Water Temp Dewpoint Dewpoint Depression Visibility Wind Speed Wind Dir Waves Ship Positions

Gentleman

Owner: CHANNEL ISLAND SPORTFISHING, OXNARD, CA. More information available from US FCC via Universal Licensing System and Coast Guard Vessel Documentation Center.

Last reported at 2018-Jul-19 12:53 UTC. Time now 2018-Jul-19 13:09 UTC.
Position N 34°10' W 119°13'.

Length 20 m.

Type: Passenger vessel. MMSI: 367362110.

Date/timePositionNaut miles runAvg speedWind from/ knotsBaromVisibWave heightAir tempDewpointWater temp
2018-Jul-19 12:53N 34°10' W 119°13'0 0.0
2018-Jul-19 12:29N 34°10' W 119°13'0 0.0
2018-Jul-19 11:56N 34°10' W 119°13'0 0.0
2018-Jul-19 11:26N 34°10' W 119°13'0 0.0
2018-Jul-19 10:56N 34°10' W 119°13'0 0.0
2018-Jul-19 09:44N 34°10' W 119°13'0 0.0
2018-Jul-19 09:26N 34°10' W 119°13'0 0.0
2018-Jul-19 08:56N 34°10' W 119°13'0 0.0
2018-Jul-19 08:20N 34°10' W 119°13'0 0.0
2018-Jul-19 07:56N 34°10' W 119°13'0 0.0
2018-Jul-19 07:29N 34°10' W 119°13'0 0.0
2018-Jul-19 06:59N 34°10' W 119°13'0 0.0
2018-Jul-19 06:29N 34°10' W 119°13'0 0.0
2018-Jul-19 05:53N 34°10' W 119°13'0 0.0
2018-Jul-19 05:26N 34°10' W 119°13'0 0.0
2018-Jul-19 04:56N 34°10' W 119°13'0 0.0
2018-Jul-19 04:26N 34°10' W 119°13'0 0.0
2018-Jul-19 03:56N 34°10' W 119°13'0 0.0
2018-Jul-19 03:29N 34°10' W 119°13'0 0.0
2018-Jul-19 02:56N 34°10' W 119°13'0 0.0
2018-Jul-19 02:17N 34°10' W 119°13'0 0.0
2018-Jul-19 01:56N 34°10' W 119°13'0 0.0
2018-Jul-19 01:29N 34°10' W 119°13'0 0.0
2018-Jul-19 00:59N 34°10' W 119°13'0 0.0
2018-Jul-19 00:14N 34°10' W 119°13'0 0.0
2018-Jul-18 23:56N 34°10' W 119°13'0 0.4
2018-Jul-18 23:29N 34°10' W 119°13'1 2.9
2018-Jul-18 23:00N 34°09' W 119°15'4 7.8
2018-Jul-18 22:26N 34°08' W 119°20'3 7.4
2018-Jul-18 22:00N 34°06' W 119°23'5 8.3
2018-Jul-18 21:23N 34°03' W 119°29'2 4.4
2018-Jul-18 20:49N 34°02' W 119°31'0 0.0
2018-Jul-18 20:22N 34°02' W 119°31'1 3.4
2018-Jul-18 19:57N 34°03' W 119°33'2 4.6
2018-Jul-18 19:25N 34°03' W 119°36'0 0.0
2018-Jul-18 18:55N 34°03' W 119°36'1 1.4
2018-Jul-18 18:26N 34°03' W 119°36'0 0.0
2018-Jul-18 17:56N 34°03' W 119°36'0 0.5
2018-Jul-18 17:15N 34°03' W 119°36'0 0.0
2018-Jul-18 17:00N 34°03' W 119°36'0 0.0
2018-Jul-18 16:27N 34°03' W 119°36'0 0.0
2018-Jul-18 16:00N 34°03' W 119°36'1 2.3
2018-Jul-18 15:30N 34°03' W 119°35'4 8.4
2018-Jul-18 15:00N 34°04' W 119°30'4 8.3
2018-Jul-18 14:30N 34°05' W 119°25'9 8.6
2018-Jul-18 13:30N 34°09' W 119°15'2 4.0
2018-Jul-18 12:59N 34°10' W 119°13'0 0.0
2018-Jul-18 12:18N 34°10' W 119°13'0 0.0
2018-Jul-18 11:54N 34°10' W 119°13'0 0.0
2018-Jul-18 11:30N 34°10' W 119°13'0 0.0
2018-Jul-18 10:30N 34°10' W 119°13'0 0.0
2018-Jul-18 10:00N 34°10' W 119°13'0 0.0
2018-Jul-18 09:30N 34°10' W 119°13'0 0.0
2018-Jul-18 08:54N 34°10' W 119°13'0 0.0
2018-Jul-18 08:30N 34°10' W 119°13'0 0.0
2018-Jul-18 08:00N 34°10' W 119°13'0 0.0
2018-Jul-18 07:30N 34°10' W 119°13'0 0.0
2018-Jul-18 07:00N 34°10' W 119°13'0 0.0
2018-Jul-18 06:27N 34°10' W 119°13'0 0.0
2018-Jul-18 06:00N 34°10' W 119°13'0 0.0
2018-Jul-18 05:30N 34°10' W 119°13'0 0.0
2018-Jul-18 05:00N 34°10' W 119°13'0 0.0
2018-Jul-18 04:27N 34°10' W 119°13'0 0.0
2018-Jul-18 04:00N 34°10' W 119°13'0 0.0
2018-Jul-18 03:21N 34°10' W 119°13'0 0.0
2018-Jul-18 02:54N 34°10' W 119°13'0 0.0
2018-Jul-18 02:30N 34°10' W 119°13'0 0.0
2018-Jul-18 01:54N 34°10' W 119°13'0 0.0
2018-Jul-18 01:27N 34°10' W 119°13'0 0.0
2018-Jul-18 00:57N 34°10' W 119°13'0 0.0
2018-Jul-18 00:24N 34°10' W 119°13'0 0.0
2018-Jul-17 23:57N 34°10' W 119°13'0 0.0
2018-Jul-17 23:30N 34°10' W 119°13'2 3.8
2018-Jul-17 23:00N 34°08' W 119°15'4 8.8
2018-Jul-17 22:30N 34°05' W 119°18'5 9.0
2018-Jul-17 21:59N 34°01' W 119°21'1 2.2
2018-Jul-17 21:29N 34°01' W 119°22'0 0.0
2018-Jul-17 20:57N 34°01' W 119°22'3 6.7
2018-Jul-17 20:28N 34°01' W 119°26'0 0.7
2018-Jul-17 19:54N 34°01' W 119°27'0 0.1
2018-Jul-17 19:30N 34°01' W 119°27'1 1.3
2018-Jul-17 18:26N 34°00' W 119°25'2 1.8
2018-Jul-17 17:07N 34°01' W 119°23'0 0.2
2018-Jul-17 16:28N 34°01' W 119°22'1 2.0
2018-Jul-17 16:00N 34°01' W 119°21'0 0.0
2018-Jul-17 15:27N 34°01' W 119°21'0 0.0
2018-Jul-17 14:57N 34°01' W 119°21'2 3.9
2018-Jul-17 14:29N 34°02' W 119°20'4 8.1
2018-Jul-17 14:00N 34°05' W 119°17'4 8.1
2018-Jul-17 13:30N 34°09' W 119°14'1 2.2
2018-Jul-17 12:58N 34°10' W 119°13'0 0.0
2018-Jul-17 12:30N 34°10' W 119°13'0 0.0
2018-Jul-17 12:00N 34°10' W 119°13'0 0.0
2018-Jul-17 11:30N 34°10' W 119°13'0 0.0
2018-Jul-17 11:00N 34°10' W 119°13'0 0.0
2018-Jul-17 10:27N 34°10' W 119°13'0 0.0
2018-Jul-17 10:00N 34°10' W 119°13'0 0.0
2018-Jul-17 09:30N 34°10' W 119°13'0 0.0
2018-Jul-17 09:00N 34°10' W 119°13'0 0.0
2018-Jul-17 08:30N 34°10' W 119°13'0 0.0
2018-Jul-17 08:00N 34°10' W 119°13'0 0.0
2018-Jul-17 07:30N 34°10' W 119°13'0 0.0
2018-Jul-17 07:00N 34°10' W 119°13'0 0.0
2018-Jul-17 06:30N 34°10' W 119°13'0 0.0
2018-Jul-17 06:00N 34°10' W 119°13'0 0.0
2018-Jul-17 05:30N 34°10' W 119°13'0 0.0
2018-Jul-17 04:51N 34°10' W 119°13'0 0.0
2018-Jul-17 04:24N 34°10' W 119°13'0 0.0
2018-Jul-17 03:57N 34°10' W 119°13'0 0.0
2018-Jul-17 03:24N 34°10' W 119°13'0 0.0
2018-Jul-17 03:00N 34°10' W 119°13'0 0.0
2018-Jul-17 02:24N 34°10' W 119°13'0 0.0
2018-Jul-17 01:57N 34°10' W 119°13'0 0.0
2018-Jul-17 01:30N 34°10' W 119°13'0 0.0
2018-Jul-17 00:54N 34°10' W 119°13'0 0.0
2018-Jul-17 00:27N 34°10' W 119°13'1 0.9
2018-Jul-16 23:30N 34°09' W 119°14'4 7.8
2018-Jul-16 22:56N 34°07' W 119°19'3 7.4
2018-Jul-16 22:28N 34°06' W 119°23'3 7.3
2018-Jul-16 22:00N 34°04' W 119°26'5 4.4
2018-Jul-16 20:57N 34°02' W 119°31'0 0.2
2018-Jul-16 20:25N 34°02' W 119°31'1 2.1
2018-Jul-16 19:58N 34°03' W 119°32'3 4.8
2018-Jul-16 19:19N 34°03' W 119°36'0 0.2
2018-Jul-16 19:00N 34°03' W 119°36'0 0.7
2018-Jul-16 18:25N 34°03' W 119°36'0 0.9
2018-Jul-16 17:58N 34°02' W 119°36'0 0.0
2018-Jul-16 17:19N 34°02' W 119°36'0 0.0
2018-Jul-16 16:56N 34°02' W 119°36'0 0.4
2018-Jul-16 16:02N 34°03' W 119°36'0 0.0
2018-Jul-16 15:57N 34°03' W 119°36'2 3.1
2018-Jul-16 15:27N 34°04' W 119°35'4 8.8
2018-Jul-16 14:59N 34°04' W 119°30'4 9.1
2018-Jul-16 14:30N 34°06' W 119°25'5 9.1
2018-Jul-16 14:00N 34°07' W 119°20'5 9.0
2018-Jul-16 13:30N 34°09' W 119°14'1 2.4
2018-Jul-16 12:59N 34°10' W 119°13'0 0.0
2018-Jul-16 12:29N 34°10' W 119°13'0 0.0
2018-Jul-16 11:53N 34°10' W 119°13'0 0.0
2018-Jul-16 11:29N 34°10' W 119°13'0 0.0
2018-Jul-16 10:59N 34°10' W 119°13'0 0.0
2018-Jul-16 10:29N 34°10' W 119°13'0 0.0
2018-Jul-16 09:59N 34°10' W 119°13'0 0.0
2018-Jul-16 09:29N 34°10' W 119°13'0 0.0
2018-Jul-16 08:56N 34°10' W 119°13'0 0.0
2018-Jul-16 08:20N 34°10' W 119°13'0 0.0
2018-Jul-16 07:59N 34°10' W 119°13'0 0.0
2018-Jul-16 07:29N 34°10' W 119°13'0 0.0
2018-Jul-16 06:56N 34°10' W 119°13'0 0.0
2018-Jul-16 06:29N 34°10' W 119°13'0 0.0
2018-Jul-16 05:56N 34°10' W 119°13'0 0.0
2018-Jul-16 05:29N 34°10' W 119°13'0 0.0
2018-Jul-16 04:59N 34°10' W 119°13'0 0.0
2018-Jul-16 04:26N 34°10' W 119°13'0 0.0
2018-Jul-16 03:59N 34°10' W 119°13'0 0.0
2018-Jul-16 03:29N 34°10' W 119°13'0 0.0
2018-Jul-16 02:47N 34°10' W 119°13'0 0.0
2018-Jul-16 02:29N 34°10' W 119°13'0 0.0
2018-Jul-16 01:47N 34°10' W 119°13'0 0.0
2018-Jul-16 00:53N 34°10' W 119°13'0 0.0
2018-Jul-16 00:29N 34°10' W 119°13'0 0.0
2018-Jul-15 23:50N 34°10' W 119°13'0 0.9
2018-Jul-15 23:29N 34°10' W 119°13'2 4.8
2018-Jul-15 23:00N 34°08' W 119°16'4 7.3
2018-Jul-15 22:30N 34°07' W 119°20'4 6.9
2018-Jul-15 21:59N 34°05' W 119°24'4 7.1
2018-Jul-15 21:27N 34°03' W 119°28'3 1.4
2018-Jul-15 19:10N 34°02' W 119°31'0 0.0
2018-Jul-15 18:58N 34°02' W 119°31'1 1.3
2018-Jul-15 18:29N 34°03' W 119°32'4 7.2
2018-Jul-15 17:58N 34°03' W 119°36'0 0.1
2018-Jul-15 17:30N 34°03' W 119°36'0 0.1
2018-Jul-15 17:00N 34°03' W 119°36'0 0.1
2018-Jul-15 16:07N 34°03' W 119°36'0 0.0
2018-Jul-15 15:57N 34°03' W 119°36'1 2.6
2018-Jul-15 15:30N 34°03' W 119°35'5 8.7
2018-Jul-15 14:59N 34°05' W 119°30'4 8.6
2018-Jul-15 14:30N 34°06' W 119°25'5 9.1
2018-Jul-15 14:00N 34°07' W 119°20'5 9.1
2018-Jul-15 13:30N 34°09' W 119°15'1 2.4
2018-Jul-15 12:55N 34°10' W 119°13'0 0.0
2018-Jul-15 12:25N 34°10' W 119°13'0 0.0
2018-Jul-15 11:58N 34°10' W 119°13'0 0.0
2018-Jul-15 11:22N 34°10' W 119°13'0 0.0
2018-Jul-15 10:58N 34°10' W 119°13'0 0.0
2018-Jul-15 10:19N 34°10' W 119°13'0 0.0
2018-Jul-15 09:55N 34°10' W 119°13'0 0.0
2018-Jul-15 09:22N 34°10' W 119°13'0 0.0
2018-Jul-15 08:58N 34°10' W 119°13'0 0.0
2018-Jul-15 08:25N 34°10' W 119°13'0 0.0
2018-Jul-15 07:55N 34°10' W 119°13'0 0.0
2018-Jul-15 07:28N 34°10' W 119°13'0 0.0
2018-Jul-15 06:58N 34°10' W 119°13'0 0.0
2018-Jul-15 06:22N 34°10' W 119°13'0 0.0
2018-Jul-15 05:58N 34°10' W 119°13'0 0.0
2018-Jul-15 05:25N 34°10' W 119°13'0 0.0
2018-Jul-15 04:55N 34°10' W 119°13'0 0.0
2018-Jul-15 04:25N 34°10' W 119°13'0 0.0
2018-Jul-15 03:58N 34°10' W 119°13'0 0.0
2018-Jul-15 03:28N 34°10' W 119°13'0 0.0
2018-Jul-15 02:58N 34°10' W 119°13'0 0.0
2018-Jul-15 02:22N 34°10' W 119°13'0 0.0
2018-Jul-15 01:52N 34°10' W 119°13'0 0.0
2018-Jul-15 01:22N 34°10' W 119°13'0 0.0
2018-Jul-15 00:58N 34°10' W 119°13'0 0.0
2018-Jul-15 00:28N 34°10' W 119°13'0 0.0
2018-Jul-14 23:31N 34°10' W 119°13'0 0.0
2018-Jul-14 23:28N 34°10' W 119°13'2 4.2
2018-Jul-14 23:00N 34°08' W 119°15'4 7.4
2018-Jul-14 22:29N 34°05' W 119°17'4 7.4
2018-Jul-14 21:59N 34°02' W 119°20'3 4.9
2018-Jul-14 21:27N 34°01' W 119°22'0 0.0
2018-Jul-14 21:00N 34°01' W 119°22'1 2.6
2018-Jul-14 20:30N 34°00' W 119°24'1 1.3
2018-Jul-14 19:34N 34°00' W 119°25'0 0.0
2018-Jul-14 19:17N 34°00' W 119°25'1 1.8
2018-Jul-14 18:51N 34°00' W 119°26'2 2.9
2018-Jul-14 18:14N 33°60' W 119°24'2 6.8
2018-Jul-14 18:00N 34°00' W 119°22'0 0.0
2018-Jul-14 17:30N 34°00' W 119°22'0 0.0
2018-Jul-14 17:00N 34°01' W 119°22'1 1.9
2018-Jul-14 16:29N 34°01' W 119°21'0 0.0
2018-Jul-14 15:59N 34°01' W 119°21'0 0.0
2018-Jul-14 15:29N 34°01' W 119°21'0 0.0
2018-Jul-14 14:53N 34°01' W 119°21'4 4.8
2018-Jul-14 14:00N 34°04' W 119°18'4 8.6
2018-Jul-14 13:29N 34°08' W 119°15'2 4.5
2018-Jul-14 12:59N 34°10' W 119°13'0 0.0
2018-Jul-14 12:29N 34°10' W 119°13'0 0.0
2018-Jul-14 11:59N 34°10' W 119°13'0 0.0
2018-Jul-14 11:29N 34°10' W 119°13'0 0.0
2018-Jul-14 10:59N 34°10' W 119°13'0 0.0
2018-Jul-14 10:23N 34°10' W 119°13'0 0.0
2018-Jul-14 09:59N 34°10' W 119°13'0 0.0
2018-Jul-14 09:05N 34°10' W 119°13'0 0.0
2018-Jul-14 08:59N 34°10' W 119°13'0 0.0
2018-Jul-14 08:23N 34°10' W 119°13'0 0.0
2018-Jul-14 07:59N 34°10' W 119°13'0 0.0
2018-Jul-14 07:26N 34°10' W 119°13'0 0.0
2018-Jul-14 06:59N 34°10' W 119°13'0 0.0
2018-Jul-14 06:29N 34°10' W 119°13'0 0.0
2018-Jul-14 05:59N 34°10' W 119°13'0 0.0
2018-Jul-14 05:29N 34°10' W 119°13'0 0.0
2018-Jul-14 04:50N 34°10' W 119°13'0 0.0
2018-Jul-14 04:26N 34°10' W 119°13'0 0.0
2018-Jul-14 03:50N 34°10' W 119°13'0 0.0
2018-Jul-14 03:29N 34°10' W 119°13'0 0.0
2018-Jul-14 02:23N 34°10' W 119°13'0 0.0
2018-Jul-14 01:53N 34°10' W 119°13'0 0.0
2018-Jul-14 01:29N 34°10' W 119°13'0 0.0
2018-Jul-14 00:44N 34°10' W 119°13'0 0.0
2018-Jul-14 00:26N 34°10' W 119°13'0 0.1
2018-Jul-13 23:58N 34°10' W 119°13'0 0.6
2018-Jul-13 23:26N 34°09' W 119°13'4 6.9
2018-Jul-13 22:53N 34°06' W 119°16'3 6.5
2018-Jul-13 22:27N 34°04' W 119°18'3 5.8
2018-Jul-13 22:00N 34°02' W 119°20'1 2.9
2018-Jul-13 21:30N 34°01' W 119°21'0 0.0
2018-Jul-13 21:00N 34°01' W 119°21'4 2.5
2018-Jul-13 19:13N 34°01' W 119°27'0 0.1
2018-Jul-13 18:39N 34°01' W 119°27'2 1.2
2018-Jul-13 16:46N 34°00' W 119°24'1 0.6
2018-Jul-13 15:13N 34°00' W 119°25'1 6.4
2018-Jul-13 15:00N 34°01' W 119°27'8 8.0
2018-Jul-13 14:00N 34°06' W 119°19'4 8.8
2018-Jul-13 13:30N 34°09' W 119°15'2 3.6
2018-Jul-13 12:59N 34°10' W 119°13'0 0.0
2018-Jul-13 12:30N 34°10' W 119°13'0 0.0
2018-Jul-13 12:00N 34°10' W 119°13'0 0.0
2018-Jul-13 11:30N 34°10' W 119°13'0 0.0
2018-Jul-13 10:51N 34°10' W 119°13'0 0.0
2018-Jul-13 10:18N 34°10' W 119°13'0 0.0
2018-Jul-13 10:00N 34°10' W 119°13'0 0.0
2018-Jul-13 09:27N 34°10' W 119°13'0 0.0
2018-Jul-13 08:57N 34°10' W 119°13'0 0.0
2018-Jul-13 08:27N 34°10' W 119°13'0 0.0
2018-Jul-13 08:00N 34°10' W 119°13'0 0.0
2018-Jul-13 07:30N 34°10' W 119°13'0 0.0
2018-Jul-13 06:51N 34°10' W 119°13'0 0.0
2018-Jul-13 06:30N 34°10' W 119°13'0 0.0
2018-Jul-13 05:54N 34°10' W 119°13'0 0.0
2018-Jul-13 05:30N 34°10' W 119°13'0 0.0
2018-Jul-13 04:57N 34°10' W 119°13'0 0.0
2018-Jul-13 04:30N 34°10' W 119°13'0 0.0
2018-Jul-13 04:00N 34°10' W 119°13'0 0.0
2018-Jul-13 03:21N 34°10' W 119°13'0 0.0
2018-Jul-13 02:36N 34°10' W 119°13'0 0.0
2018-Jul-13 02:27N 34°10' W 119°13'0 0.0
2018-Jul-13 01:54N 34°10' W 119°13'0 0.0
2018-Jul-13 01:30N 34°10' W 119°13'0 0.0
2018-Jul-13 00:57N 34°10' W 119°13'0 0.0
2018-Jul-13 00:24N 34°10' W 119°13'0 0.0
2018-Jul-12 23:57N 34°10' W 119°13'0 0.0
2018-Jul-12 23:24N 34°10' W 119°13'1 2.9
2018-Jul-12 23:00N 34°09' W 119°14'4 8.6
2018-Jul-12 22:30N 34°06' W 119°19'4 7.6
2018-Jul-12 22:00N 34°04' W 119°22'4 7.4
2018-Jul-12 21:27N 34°02' W 119°26'1 1.6
2018-Jul-12 20:47N 34°01' W 119°27'0 0.0
2018-Jul-12 20:26N 34°01' W 119°27'0 0.0
2018-Jul-12 19:23N 34°01' W 119°27'3 1.7
2018-Jul-12 17:24N 34°00' W 119°23'2 5.8
2018-Jul-12 16:59N 34°02' W 119°21'0 0.4
2018-Jul-12 16:30N 34°02' W 119°21'1 1.5
2018-Jul-12 15:58N 34°01' W 119°21'0 0.0
2018-Jul-12 15:28N 34°01' W 119°21'0 0.0
2018-Jul-12 14:58N 34°01' W 119°21'1 1.6
2018-Jul-12 14:30N 34°02' W 119°22'3 6.7
2018-Jul-12 14:00N 34°05' W 119°20'5 9.0
2018-Jul-12 13:29N 34°08' W 119°16'3 6.0
2018-Jul-12 12:59N 34°10' W 119°13'0 0.0
2018-Jul-12 12:26N 34°10' W 119°13'0 0.0
2018-Jul-12 11:56N 34°10' W 119°13'0 0.0
2018-Jul-12 11:29N 34°10' W 119°13'0 0.0
2018-Jul-12 10:59N 34°10' W 119°13'0 0.0
2018-Jul-12 10:26N 34°10' W 119°13'0 0.0
2018-Jul-12 09:56N 34°10' W 119°13'0 0.0
2018-Jul-12 09:29N 34°10' W 119°13'0 0.0
2018-Jul-12 08:56N 34°10' W 119°13'0 0.0
2018-Jul-12 08:29N 34°10' W 119°13'0 0.0
2018-Jul-12 07:35N 34°10' W 119°13'0 0.0
2018-Jul-12 07:29N 34°10' W 119°13'0 0.0
2018-Jul-12 06:56N 34°10' W 119°13'0 0.0
2018-Jul-12 06:26N 34°10' W 119°13'0 0.0
2018-Jul-12 05:59N 34°10' W 119°13'0 0.0
2018-Jul-12 05:20N 34°10' W 119°13'0 0.0
2018-Jul-12 04:56N 34°10' W 119°13'0 0.0
2018-Jul-12 04:29N 34°10' W 119°13'0 0.0
2018-Jul-12 03:59N 34°10' W 119°13'0 0.0
2018-Jul-12 03:23N 34°10' W 119°13'0 0.0
2018-Jul-12 02:47N 34°10' W 119°13'0 0.0
2018-Jul-12 02:29N 34°10' W 119°13'0 0.0
2018-Jul-12 01:53N 34°10' W 119°13'0 0.0
2018-Jul-12 01:26N 34°10' W 119°13'0 0.0
2018-Jul-12 00:44N 34°10' W 119°13'0 0.0
2018-Jul-12 00:11N 34°10' W 119°13'0 0.0
2018-Jul-11 23:47N 34°10' W 119°13'0 0.0
2018-Jul-11 23:29N 34°10' W 119°13'0 0.1
2018-Jul-11 22:59N 34°10' W 119°13'4 7.2
2018-Jul-11 22:28N 34°07' W 119°16'4 7.9
2018-Jul-11 21:59N 34°04' W 119°19'3 6.1
2018-Jul-11 21:27N 34°01' W 119°21'0 0.0
2018-Jul-11 20:57N 34°01' W 119°21'0 0.3
2018-Jul-11 20:28N 34°01' W 119°21'0 0.1
2018-Jul-11 20:00N 34°01' W 119°21'1 2.3
2018-Jul-11 19:30N 34°00' W 119°22'3 1.4
2018-Jul-11 17:30N 34°00' W 119°26'1 1.3
2018-Jul-11 16:47N 34°01' W 119°27'0 0.0
2018-Jul-11 16:26N 34°01' W 119°27'0 0.0
2018-Jul-11 15:59N 34°01' W 119°27'0 0.0
2018-Jul-11 15:29N 34°01' W 119°27'1 1.6
2018-Jul-11 14:59N 34°01' W 119°26'3 5.9
2018-Jul-11 14:30N 34°04' W 119°24'4 8.8
2018-Jul-11 13:59N 34°07' W 119°20'4 7.6
2018-Jul-11 13:30N 34°08' W 119°16'3 4.3
2018-Jul-11 12:50N 34°10' W 119°13'0 0.0
2018-Jul-11 12:30N 34°10' W 119°13'0 0.0
2018-Jul-11 12:00N 34°10' W 119°13'0 0.0
2018-Jul-11 11:30N 34°10' W 119°13'0 0.0
2018-Jul-11 11:00N 34°10' W 119°13'0 0.0
2018-Jul-11 10:30N 34°10' W 119°13'0 0.0
2018-Jul-11 09:57N 34°10' W 119°13'0 0.0
2018-Jul-11 09:30N 34°10' W 119°13'0 0.0
2018-Jul-11 09:00N 34°10' W 119°13'0 0.0
2018-Jul-11 08:24N 34°10' W 119°13'0 0.0
2018-Jul-11 08:00N 34°10' W 119°13'0 0.0
2018-Jul-11 07:21N 34°10' W 119°13'0 0.0
2018-Jul-11 07:00N 34°10' W 119°13'0 0.0
2018-Jul-11 06:24N 34°10' W 119°13'0 0.0
2018-Jul-11 06:00N 34°10' W 119°13'0 0.0
2018-Jul-11 05:30N 34°10' W 119°13'0 0.0
2018-Jul-11 04:57N 34°10' W 119°13'1 2.9
2018-Jul-11 04:30N 34°09' W 119°14'3 6.0
2018-Jul-11 04:00N 34°07' W 119°17'1 1.3
2018-Jul-11 03:27N 34°08' W 119°17'0 0.9
2018-Jul-11 02:57N 34°08' W 119°18'0 0.6
2018-Jul-11 02:27N 34°08' W 119°18'0 0.5
2018-Jul-11 01:49N 34°08' W 119°18'0 0.0
2018-Jul-11 01:28N 34°08' W 119°18'0 0.3
2018-Jul-11 00:56N 34°08' W 119°18'2 4.9
2018-Jul-11 00:28N 34°08' W 119°15'2 0.8
2018-Jul-10 21:49N 34°10' W 119°13'0 0.0
2018-Jul-10 21:19N 34°10' W 119°13'0 0.0
2018-Jul-10 20:58N 34°10' W 119°13'0 0.0
2018-Jul-10 20:28N 34°10' W 119°13'0 0.0
2018-Jul-10 19:19N 34°10' W 119°13'0 0.0
2018-Jul-10 18:55N 34°10' W 119°13'0 0.0
2018-Jul-10 18:19N 34°10' W 119°13'0 0.0
2018-Jul-10 17:40N 34°10' W 119°13'0 0.0
2018-Jul-10 17:28N 34°10' W 119°13'0 0.0
2018-Jul-10 16:58N 34°10' W 119°13'0 0.0
2018-Jul-10 16:28N 34°10' W 119°13'0 0.0
2018-Jul-10 15:55N 34°10' W 119°13'0 0.0
2018-Jul-10 15:28N 34°10' W 119°13'0 0.0
2018-Jul-10 14:55N 34°10' W 119°13'0 0.0
2018-Jul-10 14:28N 34°10' W 119°13'0 0.0
2018-Jul-10 13:58N 34°10' W 119°13'0 0.0
2018-Jul-10 13:22N 34°10' W 119°13'0 0.0
2018-Jul-10 12:55N 34°10' W 119°13'0 0.0
2018-Jul-10 12:28N 34°10' W 119°13'0 0.0
2018-Jul-10 11:52N 34°10' W 119°13'0 0.0
2018-Jul-10 11:28N 34°10' W 119°13'0 0.0
2018-Jul-10 10:58N 34°10' W 119°13'0 0.0
2018-Jul-10 10:28N 34°10' W 119°13'0 0.0
2018-Jul-10 09:58N 34°10' W 119°13'0 0.0
2018-Jul-10 09:28N 34°10' W 119°13'0 0.0
2018-Jul-10 08:58N 34°10' W 119°13'0 0.0
2018-Jul-10 08:07N 34°10' W 119°13'0 0.0
2018-Jul-10 07:55N 34°10' W 119°13'0 0.0
2018-Jul-10 07:28N 34°10' W 119°13'0 0.0
2018-Jul-10 06:58N 34°10' W 119°13'0 0.0
2018-Jul-10 06:22N 34°10' W 119°13'0 0.0
2018-Jul-10 05:58N 34°10' W 119°13'0 0.0
2018-Jul-10 05:28N 34°10' W 119°13'0 0.0
2018-Jul-10 04:58N 34°10' W 119°13'0 0.0
2018-Jul-10 02:52N 34°10' W 119°13'0 0.0
2018-Jul-10 02:28N 34°10' W 119°13'0 0.0
2018-Jul-10 00:13N 34°10' W 119°13'0 0.0
2018-Jul-09 23:34N 34°10' W 119°13'0 0.0
2018-Jul-09 23:22N 34°10' W 119°13'0 0.0
2018-Jul-09 22:59N 34°10' W 119°13'4 7.3
2018-Jul-09 22:30N 34°08' W 119°17'4 7.9
2018-Jul-09 21:59N 34°05' W 119°20'4 7.6
2018-Jul-09 21:30N 34°03' W 119°24'3 3.6
2018-Jul-09 20:42N 34°01' W 119°27'0 0.0
2018-Jul-09 20:22N 34°01' W 119°27'0 0.3
2018-Jul-09 19:52N 34°01' W 119°27'1 1.7
2018-Jul-09 18:58N 34°00' W 119°25'0 0.4
2018-Jul-09 18:27N 34°00' W 119°25'1 0.5
2018-Jul-09 15:17N 34°00' W 119°24'1 2.5
2018-Jul-09 14:54N 34°01' W 119°22'1 3.0
2018-Jul-09 14:30N 34°01' W 119°21'4 7.9
2018-Jul-09 13:59N 34°05' W 119°19'4 8.2
2018-Jul-09 13:29N 34°08' W 119°16'3 5.0
2018-Jul-09 12:56N 34°10' W 119°13'  
Track history (hours):
 
Tides and Currents Weather Stations Pressure Air Temp Water Temp Dewpoint Dewpoint Depression Visibility Wind Speed Wind Dir Waves Ship Positions

Gentleman

Owner: CHANNEL ISLAND SPORTFISHING, OXNARD, CA. More information available from US FCC via Universal Licensing System and Coast Guard Vessel Documentation Center.

Last reported at 2018-Jul-19 12:53 UTC. Time now 2018-Jul-19 13:09 UTC.
Position N 34°10' W 119°13'.

Length 20 m.

Type: Passenger vessel. MMSI: 367362110.

Date/timePositionNaut miles runAvg speedWind from/ knotsBaromVisibWave heightAir tempDewpointWater temp
2018-Jul-19 12:53N 34°10' W 119°13'0 0.0
2018-Jul-19 12:29N 34°10' W 119°13'0 0.0
2018-Jul-19 11:56N 34°10' W 119°13'0 0.0
2018-Jul-19 11:26N 34°10' W 119°13'0 0.0
2018-Jul-19 10:56N 34°10' W 119°13'0 0.0
2018-Jul-19 09:44N 34°10' W 119°13'0 0.0
2018-Jul-19 09:26N 34°10' W 119°13'0 0.0
2018-Jul-19 08:56N 34°10' W 119°13'0 0.0
2018-Jul-19 08:20N 34°10' W 119°13'0 0.0
2018-Jul-19 07:56N 34°10' W 119°13'0 0.0
2018-Jul-19 07:29N 34°10' W 119°13'0 0.0
2018-Jul-19 06:59N 34°10' W 119°13'0 0.0
2018-Jul-19 06:29N 34°10' W 119°13'0 0.0
2018-Jul-19 05:53N 34°10' W 119°13'0 0.0
2018-Jul-19 05:26N 34°10' W 119°13'0 0.0
2018-Jul-19 04:56N 34°10' W 119°13'0 0.0
2018-Jul-19 04:26N 34°10' W 119°13'0 0.0
2018-Jul-19 03:56N 34°10' W 119°13'0 0.0
2018-Jul-19 03:29N 34°10' W 119°13'0 0.0
2018-Jul-19 02:56N 34°10' W 119°13'0 0.0
2018-Jul-19 02:17N 34°10' W 119°13'0 0.0
2018-Jul-19 01:56N 34°10' W 119°13'0 0.0
2018-Jul-19 01:29N 34°10' W 119°13'0 0.0
2018-Jul-19 00:59N 34°10' W 119°13'0 0.0
2018-Jul-19 00:14N 34°10' W 119°13'0 0.0
2018-Jul-18 23:56N 34°10' W 119°13'0 0.4
2018-Jul-18 23:29N 34°10' W 119°13'1 2.9
2018-Jul-18 23:00N 34°09' W 119°15'4 7.8
2018-Jul-18 22:26N 34°08' W 119°20'3 7.4
2018-Jul-18 22:00N 34°06' W 119°23'5 8.3
2018-Jul-18 21:23N 34°03' W 119°29'2 4.4
2018-Jul-18 20:49N 34°02' W 119°31'0 0.0
2018-Jul-18 20:22N 34°02' W 119°31'1 3.4
2018-Jul-18 19:57N 34°03' W 119°33'2 4.6
2018-Jul-18 19:25N 34°03' W 119°36'0 0.0
2018-Jul-18 18:55N 34°03' W 119°36'1 1.4
2018-Jul-18 18:26N 34°03' W 119°36'0 0.0
2018-Jul-18 17:56N 34°03' W 119°36'0 0.5
2018-Jul-18 17:15N 34°03' W 119°36'0 0.0
2018-Jul-18 17:00N 34°03' W 119°36'0 0.0
2018-Jul-18 16:27N 34°03' W 119°36'0 0.0
2018-Jul-18 16:00N 34°03' W 119°36'1 2.3
2018-Jul-18 15:30N 34°03' W 119°35'4 8.4
2018-Jul-18 15:00N 34°04' W 119°30'4 8.3
2018-Jul-18 14:30N 34°05' W 119°25'9 8.6
2018-Jul-18 13:30N 34°09' W 119°15'2 4.0
2018-Jul-18 12:59N 34°10' W 119°13'0 0.0
2018-Jul-18 12:18N 34°10' W 119°13'0 0.0
2018-Jul-18 11:54N 34°10' W 119°13'0 0.0
2018-Jul-18 11:30N 34°10' W 119°13'0 0.0
2018-Jul-18 10:30N 34°10' W 119°13'0 0.0
2018-Jul-18 10:00N 34°10' W 119°13'0 0.0
2018-Jul-18 09:30N 34°10' W 119°13'0 0.0
2018-Jul-18 08:54N 34°10' W 119°13'0 0.0
2018-Jul-18 08:30N 34°10' W 119°13'0 0.0
2018-Jul-18 08:00N 34°10' W 119°13'0 0.0
2018-Jul-18 07:30N 34°10' W 119°13'0 0.0
2018-Jul-18 07:00N 34°10' W 119°13'0 0.0
2018-Jul-18 06:27N 34°10' W 119°13'0 0.0
2018-Jul-18 06:00N 34°10' W 119°13'0 0.0
2018-Jul-18 05:30N 34°10' W 119°13'0 0.0
2018-Jul-18 05:00N 34°10' W 119°13'0 0.0
2018-Jul-18 04:27N 34°10' W 119°13'0 0.0
2018-Jul-18 04:00N 34°10' W 119°13'0 0.0
2018-Jul-18 03:21N 34°10' W 119°13'0 0.0
2018-Jul-18 02:54N 34°10' W 119°13'0 0.0
2018-Jul-18 02:30N 34°10' W 119°13'0 0.0
2018-Jul-18 01:54N 34°10' W 119°13'0 0.0
2018-Jul-18 01:27N 34°10' W 119°13'0 0.0
2018-Jul-18 00:57N 34°10' W 119°13'0 0.0
2018-Jul-18 00:24N 34°10' W 119°13'0 0.0
2018-Jul-17 23:57N 34°10' W 119°13'0 0.0
2018-Jul-17 23:30N 34°10' W 119°13'2 3.8
2018-Jul-17 23:00N 34°08' W 119°15'4 8.8
2018-Jul-17 22:30N 34°05' W 119°18'5 9.0
2018-Jul-17 21:59N 34°01' W 119°21'1 2.2
2018-Jul-17 21:29N 34°01' W 119°22'0 0.0
2018-Jul-17 20:57N 34°01' W 119°22'3 6.7
2018-Jul-17 20:28N 34°01' W 119°26'0 0.7
2018-Jul-17 19:54N 34°01' W 119°27'0 0.1
2018-Jul-17 19:30N 34°01' W 119°27'1 1.3
2018-Jul-17 18:26N 34°00' W 119°25'2 1.8
2018-Jul-17 17:07N 34°01' W 119°23'0 0.2
2018-Jul-17 16:28N 34°01' W 119°22'1 2.0
2018-Jul-17 16:00N 34°01' W 119°21'0 0.0
2018-Jul-17 15:27N 34°01' W 119°21'0 0.0
2018-Jul-17 14:57N 34°01' W 119°21'2 3.9
2018-Jul-17 14:29N 34°02' W 119°20'4 8.1
2018-Jul-17 14:00N 34°05' W 119°17'4 8.1
2018-Jul-17 13:30N 34°09' W 119°14'1 2.2
2018-Jul-17 12:58N 34°10' W 119°13'0 0.0
2018-Jul-17 12:30N 34°10' W 119°13'0 0.0
2018-Jul-17 12:00N 34°10' W 119°13'0 0.0
2018-Jul-17 11:30N 34°10' W 119°13'0 0.0
2018-Jul-17 11:00N 34°10' W 119°13'0 0.0
2018-Jul-17 10:27N 34°10' W 119°13'0 0.0
2018-Jul-17 10:00N 34°10' W 119°13'0 0.0
2018-Jul-17 09:30N 34°10' W 119°13'0 0.0
2018-Jul-17 09:00N 34°10' W 119°13'0 0.0
2018-Jul-17 08:30N 34°10' W 119°13'0 0.0
2018-Jul-17 08:00N 34°10' W 119°13'0 0.0
2018-Jul-17 07:30N 34°10' W 119°13'0 0.0
2018-Jul-17 07:00N 34°10' W 119°13'0 0.0
2018-Jul-17 06:30N 34°10' W 119°13'0 0.0
2018-Jul-17 06:00N 34°10' W 119°13'0 0.0
2018-Jul-17 05:30N 34°10' W 119°13'0 0.0
2018-Jul-17 04:51N 34°10' W 119°13'0 0.0
2018-Jul-17 04:24N 34°10' W 119°13'0 0.0
2018-Jul-17 03:57N 34°10' W 119°13'0 0.0
2018-Jul-17 03:24N 34°10' W 119°13'0 0.0
2018-Jul-17 03:00N 34°10' W 119°13'0 0.0
2018-Jul-17 02:24N 34°10' W 119°13'0 0.0
2018-Jul-17 01:57N 34°10' W 119°13'0 0.0
2018-Jul-17 01:30N 34°10' W 119°13'0 0.0
2018-Jul-17 00:54N 34°10' W 119°13'0 0.0
2018-Jul-17 00:27N 34°10' W 119°13'1 0.9
2018-Jul-16 23:30N 34°09' W 119°14'4 7.8
2018-Jul-16 22:56N 34°07' W 119°19'3 7.4
2018-Jul-16 22:28N 34°06' W 119°23'3 7.3
2018-Jul-16 22:00N 34°04' W 119°26'5 4.4
2018-Jul-16 20:57N 34°02' W 119°31'0 0.2
2018-Jul-16 20:25N 34°02' W 119°31'1 2.1
2018-Jul-16 19:58N 34°03' W 119°32'3 4.8
2018-Jul-16 19:19N 34°03' W 119°36'0 0.2
2018-Jul-16 19:00N 34°03' W 119°36'0 0.7
2018-Jul-16 18:25N 34°03' W 119°36'0 0.9
2018-Jul-16 17:58N 34°02' W 119°36'0 0.0
2018-Jul-16 17:19N 34°02' W 119°36'0 0.0
2018-Jul-16 16:56N 34°02' W 119°36'0 0.4
2018-Jul-16 16:02N 34°03' W 119°36'0 0.0
2018-Jul-16 15:57N 34°03' W 119°36'2 3.1
2018-Jul-16 15:27N 34°04' W 119°35'4 8.8
2018-Jul-16 14:59N 34°04' W 119°30'4 9.1
2018-Jul-16 14:30N 34°06' W 119°25'5 9.1
2018-Jul-16 14:00N 34°07' W 119°20'5 9.0
2018-Jul-16 13:30N 34°09' W 119°14'1 2.4
2018-Jul-16 12:59N 34°10' W 119°13'0 0.0
2018-Jul-16 12:29N 34°10' W 119°13'0 0.0
2018-Jul-16 11:53N 34°10' W 119°13'0 0.0
2018-Jul-16 11:29N 34°10' W 119°13'0 0.0
2018-Jul-16 10:59N 34°10' W 119°13'0 0.0
2018-Jul-16 10:29N 34°10' W 119°13'0 0.0
2018-Jul-16 09:59N 34°10' W 119°13'0 0.0
2018-Jul-16 09:29N 34°10' W 119°13'0 0.0
2018-Jul-16 08:56N 34°10' W 119°13'0 0.0
2018-Jul-16 08:20N 34°10' W 119°13'0 0.0
2018-Jul-16 07:59N 34°10' W 119°13'0 0.0
2018-Jul-16 07:29N 34°10' W 119°13'0 0.0
2018-Jul-16 06:56N 34°10' W 119°13'0 0.0
2018-Jul-16 06:29N 34°10' W 119°13'0 0.0
2018-Jul-16 05:56N 34°10' W 119°13'0 0.0
2018-Jul-16 05:29N 34°10' W 119°13'0 0.0
2018-Jul-16 04:59N 34°10' W 119°13'0 0.0
2018-Jul-16 04:26N 34°10' W 119°13'0 0.0
2018-Jul-16 03:59N 34°10' W 119°13'0 0.0
2018-Jul-16 03:29N 34°10' W 119°13'0 0.0
2018-Jul-16 02:47N 34°10' W 119°13'0 0.0
2018-Jul-16 02:29N 34°10' W 119°13'0 0.0
2018-Jul-16 01:47N 34°10' W 119°13'0 0.0
2018-Jul-16 00:53N 34°10' W 119°13'0 0.0
2018-Jul-16 00:29N 34°10' W 119°13'0 0.0
2018-Jul-15 23:50N 34°10' W 119°13'0 0.9
2018-Jul-15 23:29N 34°10' W 119°13'2 4.8
2018-Jul-15 23:00N 34°08' W 119°16'4 7.3
2018-Jul-15 22:30N 34°07' W 119°20'4 6.9
2018-Jul-15 21:59N 34°05' W 119°24'4 7.1
2018-Jul-15 21:27N 34°03' W 119°28'3 1.4
2018-Jul-15 19:10N 34°02' W 119°31'0 0.0
2018-Jul-15 18:58N 34°02' W 119°31'1 1.3
2018-Jul-15 18:29N 34°03' W 119°32'4 7.2
2018-Jul-15 17:58N 34°03' W 119°36'0 0.1
2018-Jul-15 17:30N 34°03' W 119°36'0 0.1
2018-Jul-15 17:00N 34°03' W 119°36'0 0.1
2018-Jul-15 16:07N 34°03' W 119°36'0 0.0
2018-Jul-15 15:57N 34°03' W 119°36'1 2.6
2018-Jul-15 15:30N 34°03' W 119°35'5 8.7
2018-Jul-15 14:59N 34°05' W 119°30'4 8.6
2018-Jul-15 14:30N 34°06' W 119°25'5 9.1
2018-Jul-15 14:00N 34°07' W 119°20'5 9.1
2018-Jul-15 13:30N 34°09' W 119°15'1 2.4
2018-Jul-15 12:55N 34°10' W 119°13'0 0.0
2018-Jul-15 12:25N 34°10' W 119°13'0 0.0
2018-Jul-15 11:58N 34°10' W 119°13'0 0.0
2018-Jul-15 11:22N 34°10' W 119°13'0 0.0
2018-Jul-15 10:58N 34°10' W 119°13'0 0.0
2018-Jul-15 10:19N 34°10' W 119°13'0 0.0
2018-Jul-15 09:55N 34°10' W 119°13'0 0.0
2018-Jul-15 09:22N 34°10' W 119°13'0 0.0
2018-Jul-15 08:58N 34°10' W 119°13'0 0.0
2018-Jul-15 08:25N 34°10' W 119°13'0 0.0
2018-Jul-15 07:55N 34°10' W 119°13'0 0.0
2018-Jul-15 07:28N 34°10' W 119°13'0 0.0
2018-Jul-15 06:58N 34°10' W 119°13'0 0.0
2018-Jul-15 06:22N 34°10' W 119°13'0 0.0
2018-Jul-15 05:58N 34°10' W 119°13'0 0.0
2018-Jul-15 05:25N 34°10' W 119°13'0 0.0
2018-Jul-15 04:55N 34°10' W 119°13'0 0.0
2018-Jul-15 04:25N 34°10' W 119°13'0 0.0
2018-Jul-15 03:58N 34°10' W 119°13'0 0.0
2018-Jul-15 03:28N 34°10' W 119°13'0 0.0
2018-Jul-15 02:58N 34°10' W 119°13'0 0.0
2018-Jul-15 02:22N 34°10' W 119°13'0 0.0
2018-Jul-15 01:52N 34°10' W 119°13'0 0.0
2018-Jul-15 01:22N 34°10' W 119°13'0 0.0
2018-Jul-15 00:58N 34°10' W 119°13'0 0.0
2018-Jul-15 00:28N 34°10' W 119°13'0 0.0
2018-Jul-14 23:31N 34°10' W 119°13'0 0.0
2018-Jul-14 23:28N 34°10' W 119°13'2 4.2
2018-Jul-14 23:00N 34°08' W 119°15'4 7.4
2018-Jul-14 22:29N 34°05' W 119°17'4 7.4
2018-Jul-14 21:59N 34°02' W 119°20'3 4.9
2018-Jul-14 21:27N 34°01' W 119°22'0 0.0
2018-Jul-14 21:00N 34°01' W 119°22'1 2.6
2018-Jul-14 20:30N 34°00' W 119°24'1 1.3
2018-Jul-14 19:34N 34°00' W 119°25'0 0.0
2018-Jul-14 19:17N 34°00' W 119°25'1 1.8
2018-Jul-14 18:51N 34°00' W 119°26'2 2.9
2018-Jul-14 18:14N 33°60' W 119°24'2 6.8
2018-Jul-14 18:00N 34°00' W 119°22'0 0.0
2018-Jul-14 17:30N 34°00' W 119°22'0 0.0
2018-Jul-14 17:00N 34°01' W 119°22'1 1.9
2018-Jul-14 16:29N 34°01' W 119°21'0 0.0
2018-Jul-14 15:59N 34°01' W 119°21'0 0.0
2018-Jul-14 15:29N 34°01' W 119°21'0 0.0
2018-Jul-14 14:53N 34°01' W 119°21'4 4.8
2018-Jul-14 14:00N 34°04' W 119°18'4 8.6
2018-Jul-14 13:29N 34°08' W 119°15'2 4.5
2018-Jul-14 12:59N 34°10' W 119°13'0 0.0
2018-Jul-14 12:29N 34°10' W 119°13'0 0.0
2018-Jul-14 11:59N 34°10' W 119°13'0 0.0
2018-Jul-14 11:29N 34°10' W 119°13'0 0.0
2018-Jul-14 10:59N 34°10' W 119°13'0 0.0
2018-Jul-14 10:23N 34°10' W 119°13'0 0.0
2018-Jul-14 09:59N 34°10' W 119°13'0 0.0
2018-Jul-14 09:05N 34°10' W 119°13'0 0.0
2018-Jul-14 08:59N 34°10' W 119°13'0 0.0
2018-Jul-14 08:23N 34°10' W 119°13'0 0.0
2018-Jul-14 07:59N 34°10' W 119°13'0 0.0
2018-Jul-14 07:26N 34°10' W 119°13'0 0.0
2018-Jul-14 06:59N 34°10' W 119°13'0 0.0
2018-Jul-14 06:29N 34°10' W 119°13'0 0.0
2018-Jul-14 05:59N 34°10' W 119°13'0 0.0
2018-Jul-14 05:29N 34°10' W 119°13'0 0.0
2018-Jul-14 04:50N 34°10' W 119°13'0 0.0
2018-Jul-14 04:26N 34°10' W 119°13'0 0.0
2018-Jul-14 03:50N 34°10' W 119°13'0 0.0
2018-Jul-14 03:29N 34°10' W 119°13'0 0.0
2018-Jul-14 02:23N 34°10' W 119°13'0 0.0
2018-Jul-14 01:53N 34°10' W 119°13'0 0.0
2018-Jul-14 01:29N 34°10' W 119°13'0 0.0
2018-Jul-14 00:44N 34°10' W 119°13'0 0.0
2018-Jul-14 00:26N 34°10' W 119°13'0 0.1
2018-Jul-13 23:58N 34°10' W 119°13'0 0.6
2018-Jul-13 23:26N 34°09' W 119°13'4 6.9
2018-Jul-13 22:53N 34°06' W 119°16'3 6.5
2018-Jul-13 22:27N 34°04' W 119°18'3 5.8
2018-Jul-13 22:00N 34°02' W 119°20'1 2.9
2018-Jul-13 21:30N 34°01' W 119°21'0 0.0
2018-Jul-13 21:00N 34°01' W 119°21'4 2.5
2018-Jul-13 19:13N 34°01' W 119°27'0 0.1
2018-Jul-13 18:39N 34°01' W 119°27'2 1.2
2018-Jul-13 16:46N 34°00' W 119°24'1 0.6
2018-Jul-13 15:13N 34°00' W 119°25'1 6.4
2018-Jul-13 15:00N 34°01' W 119°27'8 8.0
2018-Jul-13 14:00N 34°06' W 119°19'4 8.8
2018-Jul-13 13:30N 34°09' W 119°15'2 3.6
2018-Jul-13 12:59N 34°10' W 119°13'0 0.0
2018-Jul-13 12:30N 34°10' W 119°13'0 0.0
2018-Jul-13 12:00N 34°10' W 119°13'0 0.0
2018-Jul-13 11:30N 34°10' W 119°13'0 0.0
2018-Jul-13 10:51N 34°10' W 119°13'0 0.0
2018-Jul-13 10:18N 34°10' W 119°13'0 0.0
2018-Jul-13 10:00N 34°10' W 119°13'0 0.0
2018-Jul-13 09:27N 34°10' W 119°13'0 0.0
2018-Jul-13 08:57N 34°10' W 119°13'0 0.0
2018-Jul-13 08:27N 34°10' W 119°13'0 0.0
2018-Jul-13 08:00N 34°10' W 119°13'0 0.0
2018-Jul-13 07:30N 34°10' W 119°13'0 0.0
2018-Jul-13 06:51N 34°10' W 119°13'0 0.0
2018-Jul-13 06:30N 34°10' W 119°13'0 0.0
2018-Jul-13 05:54N 34°10' W 119°13'0 0.0
2018-Jul-13 05:30N 34°10' W 119°13'0 0.0
2018-Jul-13 04:57N 34°10' W 119°13'0 0.0
2018-Jul-13 04:30N 34°10' W 119°13'0 0.0
2018-Jul-13 04:00N 34°10' W 119°13'0 0.0
2018-Jul-13 03:21N 34°10' W 119°13'0 0.0
2018-Jul-13 02:36N 34°10' W 119°13'0 0.0
2018-Jul-13 02:27N 34°10' W 119°13'0 0.0
2018-Jul-13 01:54N 34°10' W 119°13'0 0.0
2018-Jul-13 01:30N 34°10' W 119°13'0 0.0
2018-Jul-13 00:57N 34°10' W 119°13'0 0.0
2018-Jul-13 00:24N 34°10' W 119°13'0 0.0
2018-Jul-12 23:57N 34°10' W 119°13'0 0.0
2018-Jul-12 23:24N 34°10' W 119°13'1 2.9
2018-Jul-12 23:00N 34°09' W 119°14'4 8.6
2018-Jul-12 22:30N 34°06' W 119°19'4 7.6
2018-Jul-12 22:00N 34°04' W 119°22'4 7.4
2018-Jul-12 21:27N 34°02' W 119°26'1 1.6
2018-Jul-12 20:47N 34°01' W 119°27'0 0.0
2018-Jul-12 20:26N 34°01' W 119°27'0 0.0
2018-Jul-12 19:23N 34°01' W 119°27'3 1.7
2018-Jul-12 17:24N 34°00' W 119°23'2 5.8
2018-Jul-12 16:59N 34°02' W 119°21'0 0.4
2018-Jul-12 16:30N 34°02' W 119°21'1 1.5
2018-Jul-12 15:58N 34°01' W 119°21'0 0.0
2018-Jul-12 15:28N 34°01' W 119°21'0 0.0
2018-Jul-12 14:58N 34°01' W 119°21'1 1.6
2018-Jul-12 14:30N 34°02' W 119°22'3 6.7
2018-Jul-12 14:00N 34°05' W 119°20'5 9.0
2018-Jul-12 13:29N 34°08' W 119°16'3 6.0
2018-Jul-12 12:59N 34°10' W 119°13'0 0.0
2018-Jul-12 12:26N 34°10' W 119°13'0 0.0
2018-Jul-12 11:56N 34°10' W 119°13'0 0.0
2018-Jul-12 11:29N 34°10' W 119°13'0 0.0
2018-Jul-12 10:59N 34°10' W 119°13'0 0.0
2018-Jul-12 10:26N 34°10' W 119°13'0 0.0
2018-Jul-12 09:56N 34°10' W 119°13'0 0.0
2018-Jul-12 09:29N 34°10' W 119°13'0 0.0
2018-Jul-12 08:56N 34°10' W 119°13'0 0.0
2018-Jul-12 08:29N 34°10' W 119°13'0 0.0
2018-Jul-12 07:35N 34°10' W 119°13'0 0.0
2018-Jul-12 07:29N 34°10' W 119°13'0 0.0
2018-Jul-12 06:56N 34°10' W 119°13'0 0.0
2018-Jul-12 06:26N 34°10' W 119°13'0 0.0
2018-Jul-12 05:59N 34°10' W 119°13'0 0.0
2018-Jul-12 05:20N 34°10' W 119°13'0 0.0
2018-Jul-12 04:56N 34°10' W 119°13'0 0.0
2018-Jul-12 04:29N 34°10' W 119°13'0 0.0
2018-Jul-12 03:59N 34°10' W 119°13'0 0.0
2018-Jul-12 03:23N 34°10' W 119°13'0 0.0
2018-Jul-12 02:47N 34°10' W 119°13'0 0.0
2018-Jul-12 02:29N 34°10' W 119°13'0 0.0
2018-Jul-12 01:53N 34°10' W 119°13'0 0.0
2018-Jul-12 01:26N 34°10' W 119°13'0 0.0
2018-Jul-12 00:44N 34°10' W 119°13'0 0.0
2018-Jul-12 00:11N 34°10' W 119°13'0 0.0
2018-Jul-11 23:47N 34°10' W 119°13'0 0.0
2018-Jul-11 23:29N 34°10' W 119°13'0 0.1
2018-Jul-11 22:59N 34°10' W 119°13'4 7.2
2018-Jul-11 22:28N 34°07' W 119°16'4 7.9
2018-Jul-11 21:59N 34°04' W 119°19'3 6.1
2018-Jul-11 21:27N 34°01' W 119°21'0 0.0
2018-Jul-11 20:57N 34°01' W 119°21'0 0.3
2018-Jul-11 20:28N 34°01' W 119°21'0 0.1
2018-Jul-11 20:00N 34°01' W 119°21'1 2.3
2018-Jul-11 19:30N 34°00' W 119°22'3 1.4
2018-Jul-11 17:30N 34°00' W 119°26'1 1.3
2018-Jul-11 16:47N 34°01' W 119°27'0 0.0
2018-Jul-11 16:26N 34°01' W 119°27'0 0.0
2018-Jul-11 15:59N 34°01' W 119°27'0 0.0
2018-Jul-11 15:29N 34°01' W 119°27'1 1.6
2018-Jul-11 14:59N 34°01' W 119°26'3 5.9
2018-Jul-11 14:30N 34°04' W 119°24'4 8.8
2018-Jul-11 13:59N 34°07' W 119°20'4 7.6
2018-Jul-11 13:30N 34°08' W 119°16'3 4.3
2018-Jul-11 12:50N 34°10' W 119°13'0 0.0
2018-Jul-11 12:30N 34°10' W 119°13'0 0.0
2018-Jul-11 12:00N 34°10' W 119°13'0 0.0
2018-Jul-11 11:30N 34°10' W 119°13'0 0.0
2018-Jul-11 11:00N 34°10' W 119°13'0 0.0
2018-Jul-11 10:30N 34°10' W 119°13'0 0.0
2018-Jul-11 09:57N 34°10' W 119°13'0 0.0
2018-Jul-11 09:30N 34°10' W 119°13'0 0.0
2018-Jul-11 09:00N 34°10' W 119°13'0 0.0
2018-Jul-11 08:24N 34°10' W 119°13'0 0.0
2018-Jul-11 08:00N 34°10' W 119°13'0 0.0
2018-Jul-11 07:21N 34°10' W 119°13'0 0.0
2018-Jul-11 07:00N 34°10' W 119°13'0 0.0
2018-Jul-11 06:24N 34°10' W 119°13'0 0.0
2018-Jul-11 06:00N 34°10' W 119°13'0 0.0
2018-Jul-11 05:30N 34°10' W 119°13'0 0.0
2018-Jul-11 04:57N 34°10' W 119°13'1 2.9
2018-Jul-11 04:30N 34°09' W 119°14'3 6.0
2018-Jul-11 04:00N 34°07' W 119°17'1 1.3
2018-Jul-11 03:27N 34°08' W 119°17'0 0.9
2018-Jul-11 02:57N 34°08' W 119°18'0 0.6
2018-Jul-11 02:27N 34°08' W 119°18'0 0.5
2018-Jul-11 01:49N 34°08' W 119°18'0 0.0
2018-Jul-11 01:28N 34°08' W 119°18'0 0.3
2018-Jul-11 00:56N 34°08' W 119°18'2 4.9
2018-Jul-11 00:28N 34°08' W 119°15'2 0.8
2018-Jul-10 21:49N 34°10' W 119°13'0 0.0
2018-Jul-10 21:19N 34°10' W 119°13'0 0.0
2018-Jul-10 20:58N 34°10' W 119°13'0 0.0
2018-Jul-10 20:28N 34°10' W 119°13'0 0.0
2018-Jul-10 19:19N 34°10' W 119°13'0 0.0
2018-Jul-10 18:55N 34°10' W 119°13'0 0.0
2018-Jul-10 18:19N 34°10' W 119°13'0 0.0
2018-Jul-10 17:40N 34°10' W 119°13'0 0.0
2018-Jul-10 17:28N 34°10' W 119°13'0 0.0
2018-Jul-10 16:58N 34°10' W 119°13'0 0.0
2018-Jul-10 16:28N 34°10' W 119°13'0 0.0
2018-Jul-10 15:55N 34°10' W 119°13'0 0.0
2018-Jul-10 15:28N 34°10' W 119°13'0 0.0
2018-Jul-10 14:55N 34°10' W 119°13'0 0.0
2018-Jul-10 14:28N 34°10' W 119°13'0 0.0
2018-Jul-10 13:58N 34°10' W 119°13'0 0.0
2018-Jul-10 13:22N 34°10' W 119°13'0 0.0
2018-Jul-10 12:55N 34°10' W 119°13'0 0.0
2018-Jul-10 12:28N 34°10' W 119°13'0 0.0
2018-Jul-10 11:52N 34°10' W 119°13'0 0.0
2018-Jul-10 11:28N 34°10' W 119°13'0 0.0
2018-Jul-10 10:58N 34°10' W 119°13'0 0.0
2018-Jul-10 10:28N 34°10' W 119°13'0 0.0
2018-Jul-10 09:58N 34°10' W 119°13'0 0.0
2018-Jul-10 09:28N 34°10' W 119°13'0 0.0
2018-Jul-10 08:58N 34°10' W 119°13'0 0.0
2018-Jul-10 08:07N 34°10' W 119°13'0 0.0
2018-Jul-10 07:55N 34°10' W 119°13'0 0.0
2018-Jul-10 07:28N 34°10' W 119°13'0 0.0
2018-Jul-10 06:58N 34°10' W 119°13'0 0.0
2018-Jul-10 06:22N 34°10' W 119°13'0 0.0
2018-Jul-10 05:58N 34°10' W 119°13'0 0.0
2018-Jul-10 05:28N 34°10' W 119°13'0 0.0
2018-Jul-10 04:58N 34°10' W 119°13'0 0.0
2018-Jul-10 02:52N 34°10' W 119°13'0 0.0
2018-Jul-10 02:28N 34°10' W 119°13'0 0.0
2018-Jul-10 00:13N 34°10' W 119°13'0 0.0
2018-Jul-09 23:34N 34°10' W 119°13'0 0.0
2018-Jul-09 23:22N 34°10' W 119°13'0 0.0
2018-Jul-09 22:59N 34°10' W 119°13'4 7.3
2018-Jul-09 22:30N 34°08' W 119°17'4 7.9
2018-Jul-09 21:59N 34°05' W 119°20'4 7.6
2018-Jul-09 21:30N 34°03' W 119°24'3 3.6
2018-Jul-09 20:42N 34°01' W 119°27'0 0.0
2018-Jul-09 20:22N 34°01' W 119°27'0 0.3
2018-Jul-09 19:52N 34°01' W 119°27'1 1.7
2018-Jul-09 18:58N 34°00' W 119°25'0 0.4
2018-Jul-09 18:27N 34°00' W 119°25'1 0.5
2018-Jul-09 15:17N 34°00' W 119°24'1 2.5
2018-Jul-09 14:54N 34°01' W 119°22'1 3.0
2018-Jul-09 14:30N 34°01' W 119°21'4 7.9
2018-Jul-09 13:59N 34°05' W 119°19'4 8.2
2018-Jul-09 13:29N 34°08' W 119°16'3 5.0
2018-Jul-09 12:56N 34°10' W 119°13'  

Dump ship's entire track history